createdAt,value
2018-05-09T00:01:51.666Z,98430.08
2018-05-09T00:04:19.288Z,98438.28
2018-05-09T00:06:46.894Z,98430.50
2018-05-09T00:09:14.522Z,98429.13
2018-05-09T00:11:42.175Z,98425.20
2018-05-09T00:14:09.730Z,98423.63
2018-05-09T00:16:37.286Z,98413.70
2018-05-09T00:19:04.830Z,98417.38
2018-05-09T00:21:32.410Z,98417.94
2018-05-09T00:23:59.934Z,98397.13
2018-05-09T00:26:27.489Z,98409.47
2018-05-09T00:28:55.036Z,98415.88
2018-05-09T00:31:22.655Z,98411.42
2018-05-09T00:33:50.199Z,98415.72
2018-05-09T00:36:17.762Z,98421.08
2018-05-09T00:38:45.323Z,98411.15
2018-05-09T00:41:12.877Z,98420.35
2018-05-09T00:43:40.453Z,98412.59
2018-05-09T00:46:08.110Z,98402.59
2018-05-09T00:48:35.634Z,98413.86
2018-05-09T00:51:03.185Z,98408.51
2018-05-09T00:53:31.561Z,98406.91
2018-05-09T00:55:59.166Z,98402.45
2018-05-09T00:58:26.822Z,98406.75
2018-05-09T01:00:54.370Z,98405.09
2018-05-09T01:03:21.918Z,98406.48
2018-05-09T01:05:49.474Z,98399.16
2018-05-09T01:08:17.027Z,98400.70
2018-05-09T01:10:44.598Z,98392.57
2018-05-09T01:13:12.129Z,98407.05
2018-05-09T01:15:39.712Z,98396.91
2018-05-09T01:18:07.299Z,98394.02
2018-05-09T01:20:34.885Z,98397.09
2018-05-09T01:23:02.413Z,98393.53
2018-05-09T01:25:29.965Z,98388.73
2018-05-09T01:27:57.543Z,98393.47
2018-05-09T01:30:25.070Z,98391.45
2018-05-09T01:32:52.617Z,98394.55
2018-05-09T01:35:20.215Z,98387.71
2018-05-09T01:37:47.778Z,98389.39
2018-05-09T01:40:15.333Z,98383.44
2018-05-09T01:42:42.969Z,98387.07
2018-05-09T01:45:10.541Z,98387.58
2018-05-09T01:47:38.158Z,98387.76
2018-05-09T01:50:05.865Z,98383.97
2018-05-09T01:52:33.467Z,98384.69
2018-05-09T01:55:01.978Z,98386.13
2018-05-09T01:57:29.674Z,98375.06
2018-05-09T01:59:57.422Z,98378.16
2018-05-09T02:02:24.971Z,98378.82
2018-05-09T02:04:52.503Z,98386.16
2018-05-09T02:07:20.131Z,98379.19
2018-05-09T02:09:47.790Z,98380.34
2018-05-09T02:12:15.358Z,98382.39
2018-05-09T02:14:43.012Z,98375.66
2018-05-09T02:17:10.591Z,98386.50
2018-05-09T02:19:38.139Z,98379.94
2018-05-09T02:22:05.794Z,98388.18
2018-05-09T02:24:33.321Z,98392.70
2018-05-09T02:27:00.913Z,98387.59
2018-05-09T02:29:28.450Z,98388.83
2018-05-09T02:31:56.003Z,98378.77
2018-05-09T02:34:23.604Z,98379.97
2018-05-09T02:36:51.257Z,98372.67
2018-05-09T02:39:18.915Z,98380.71
2018-05-09T02:41:46.486Z,98380.21
2018-05-09T02:44:14.013Z,98384.20
2018-05-09T02:46:41.594Z,98377.37
2018-05-09T02:49:09.156Z,98382.51
2018-05-09T02:51:36.822Z,98380.25
2018-05-09T02:54:04.349Z,98380.96
2018-05-09T02:56:32.124Z,98384.44
2018-05-09T02:58:59.701Z,98386.95
2018-05-09T03:01:27.281Z,98387.77
2018-05-09T03:03:54.932Z,98381.73
2018-05-09T03:06:22.483Z,98372.76
2018-05-09T03:08:50.053Z,98386.63
2018-05-09T03:11:17.600Z,98388.62
2018-05-09T03:13:45.261Z,98388.75
2018-05-09T03:16:12.820Z,98389.28
2018-05-09T03:18:40.468Z,98383.74
2018-05-09T03:21:07.997Z,98385.95
2018-05-09T03:23:35.703Z,98386.16
2018-05-09T03:26:03.246Z,98387.98
2018-05-09T03:28:30.825Z,98388.30
2018-05-09T03:30:58.382Z,98393.69
2018-05-09T03:33:25.950Z,98397.88
2018-05-09T03:35:53.481Z,98400.22
2018-05-09T03:38:21.061Z,98406.17
2018-05-09T03:40:48.621Z,98410.77
2018-05-09T03:43:16.268Z,98407.24
2018-05-09T03:45:43.789Z,98410.61
2018-05-09T03:48:11.414Z,98414.67
2018-05-09T03:50:38.948Z,98403.04
2018-05-09T03:53:06.498Z,98405.91
2018-05-09T03:55:34.026Z,98410.38
2018-05-09T03:58:02.332Z,98417.41
2018-05-09T04:00:29.853Z,98413.45
2018-05-09T04:03:09.251Z,98416.33
2018-05-09T04:05:48.495Z,98416.50
2018-05-09T04:08:27.988Z,98408.05
2018-05-09T04:10:55.593Z,98409.75
2018-05-09T04:13:23.141Z,98407.53
2018-05-09T04:15:50.673Z,98404.96
2018-05-09T04:18:18.221Z,98403.33
2018-05-09T04:20:45.780Z,98408.73
2018-05-09T04:23:13.349Z,98407.33
2018-05-09T04:25:40.956Z,98415.71
2018-05-09T04:28:08.519Z,98419.16
2018-05-09T04:30:36.167Z,98418.22
2018-05-09T04:33:03.762Z,98415.72
2018-05-09T04:35:31.386Z,98421.67
2018-05-09T04:37:58.951Z,98424.75
2018-05-09T04:40:26.466Z,98426.89
2018-05-09T04:42:54.073Z,98426.64
2018-05-09T04:45:21.627Z,98431.13
2018-05-09T04:47:49.187Z,98428.29
2018-05-09T04:50:16.774Z,98432.98
2018-05-09T04:52:44.423Z,98431.89
2018-05-09T04:55:12.082Z,98436.17
2018-05-09T04:57:39.613Z,98430.51
2018-05-09T05:00:07.187Z,98433.59
2018-05-09T05:02:34.713Z,98429.58
2018-05-09T05:05:02.718Z,98437.79
2018-05-09T05:07:30.290Z,98436.82
2018-05-09T05:09:57.943Z,98440.71
2018-05-09T05:12:25.497Z,98437.00
2018-05-09T05:14:53.058Z,98443.80
2018-05-09T05:17:21.612Z,98453.11
2018-05-09T05:19:50.029Z,98451.20
2018-05-09T05:22:17.685Z,98462.02
2018-05-09T05:24:45.257Z,98461.49
2018-05-09T05:27:12.781Z,98462.19
2018-05-09T05:29:40.460Z,98465.70
2018-05-09T05:32:08.024Z,98462.50
2018-05-09T05:34:35.614Z,98465.83
2018-05-09T05:37:03.212Z,98467.47
2018-05-09T05:39:30.770Z,98470.05
2018-05-09T05:41:58.587Z,98475.81
2018-05-09T05:44:26.141Z,98482.66
2018-05-09T05:46:53.688Z,98481.94
2018-05-09T05:49:21.251Z,98480.36
2018-05-09T05:51:48.786Z,98485.16
2018-05-09T05:54:16.382Z,98482.20
2018-05-09T05:56:43.910Z,98484.35
2018-05-09T05:59:11.493Z,98477.34
2018-05-09T06:01:39.016Z,98474.06
2018-05-09T06:04:06.592Z,98475.66
2018-05-09T06:06:34.149Z,98473.78
2018-05-09T06:09:01.723Z,98477.76
2018-05-09T06:11:29.249Z,98473.85
2018-05-09T06:13:56.853Z,98474.81
2018-05-09T06:16:24.433Z,98467.30
2018-05-09T06:18:51.981Z,98475.08
2018-05-09T06:21:19.525Z,98474.45
2018-05-09T06:23:48.112Z,98474.63
2018-05-09T06:26:15.685Z,98473.81
2018-05-09T06:28:43.225Z,98475.47
2018-05-09T06:31:10.891Z,98466.42
2018-05-09T06:33:38.447Z,98472.71
2018-05-09T06:36:06.016Z,98462.55
2018-05-09T06:38:33.574Z,98459.09
2018-05-09T06:41:01.125Z,98447.52
2018-05-09T06:43:28.685Z,98462.06
2018-05-09T06:45:56.347Z,98456.28
2018-05-09T06:48:23.885Z,98459.51
2018-05-09T06:50:51.579Z,98463.99
2018-05-09T06:53:19.109Z,98463.10
2018-05-09T06:55:46.665Z,98463.22
2018-05-09T06:58:14.247Z,98467.34
2018-05-09T07:00:41.793Z,98460.34
2018-05-09T07:03:09.325Z,98461.39
2018-05-09T07:05:36.925Z,98461.37
2018-05-09T07:08:04.450Z,98465.88
2018-05-09T07:10:32.002Z,98470.23
2018-05-09T07:12:59.540Z,98468.27
2018-05-09T07:15:27.164Z,98470.73
2018-05-09T07:17:54.690Z,98472.43
2018-05-09T07:20:24.712Z,98474.59
2018-05-09T07:22:54.190Z,98473.61
2018-05-09T07:25:22.016Z,98477.50
2018-05-09T07:27:51.348Z,98471.77
2018-05-09T07:30:19.019Z,98478.98
2018-05-09T07:32:48.267Z,98477.99
2018-05-09T07:35:16.242Z,98478.47
2018-05-09T07:37:44.323Z,98481.25
2018-05-09T07:40:12.281Z,98477.63
2018-05-09T07:42:39.841Z,98486.33
2018-05-09T07:45:09.670Z,98482.34
2018-05-09T07:47:38.824Z,98478.75
2018-05-09T07:50:08.660Z,98481.89
2018-05-09T07:52:36.188Z,98482.93
2018-05-09T07:55:06.243Z,98480.31
2018-05-09T07:57:36.616Z,98480.98
2018-05-09T08:00:05.148Z,98484.36
2018-05-09T08:02:34.320Z,98482.92
2018-05-09T08:05:02.027Z,98475.55
2018-05-09T08:07:30.285Z,98471.22
2018-05-09T08:09:59.687Z,98475.14
2018-05-09T08:12:28.629Z,98473.97
2018-05-09T08:14:56.308Z,98475.77
2018-05-09T08:17:26.714Z,98482.41
2018-05-09T08:19:55.159Z,98480.71
2018-05-09T08:22:24.512Z,98479.73
2018-05-09T08:24:53.751Z,98478.36
2018-05-09T08:27:21.322Z,98479.70
2018-05-09T08:29:48.976Z,98484.39
2018-05-09T08:32:16.637Z,98477.88
2018-05-09T08:34:44.153Z,98483.09
2018-05-09T08:37:11.754Z,98477.75
2018-05-09T08:39:39.282Z,98478.55
2018-05-09T08:42:06.872Z,98484.83
2018-05-09T08:44:34.441Z,98483.33
2018-05-09T08:47:02.059Z,98478.64
2018-05-09T08:49:29.651Z,98478.53
2018-05-09T08:51:57.198Z,98474.90
2018-05-09T08:54:24.767Z,98472.31
2018-05-09T08:56:52.326Z,98469.79
2018-05-09T08:59:19.849Z,98474.91
2018-05-09T09:01:47.430Z,98468.63
2018-05-09T09:04:15.080Z,98465.76
2018-05-09T09:06:42.676Z,98476.06
2018-05-09T09:09:10.230Z,98467.66
2018-05-09T09:11:37.892Z,98469.83
2018-05-09T09:14:05.410Z,98470.22
2018-05-09T09:16:33.811Z,98472.44
2018-05-09T09:19:01.342Z,98468.97
2018-05-09T09:21:28.898Z,98463.83
2018-05-09T09:23:56.446Z,98468.89
2018-05-09T09:26:24.184Z,98466.88
2018-05-09T09:28:51.730Z,98470.39
2018-05-09T09:31:19.288Z,98461.17
2018-05-09T09:33:46.849Z,98464.86
2018-05-09T09:36:14.511Z,98462.36
2018-05-09T09:38:42.081Z,98454.39
2018-05-09T09:41:09.622Z,98447.40
2018-05-09T09:43:37.191Z,98453.89
2018-05-09T09:46:04.717Z,98447.72
2018-05-09T09:48:32.308Z,98443.61
2018-05-09T09:50:59.825Z,98442.83
2018-05-09T09:53:27.374Z,98438.94
2018-05-09T09:55:54.964Z,98435.72
2018-05-09T09:58:22.554Z,98437.13
2018-05-09T10:00:50.563Z,98431.30
2018-05-09T10:03:18.135Z,98438.59
2018-05-09T10:05:45.737Z,98436.36
2018-05-09T10:08:13.410Z,98441.09
2018-05-09T10:10:40.943Z,98441.30
2018-05-09T10:13:08.624Z,98441.37
2018-05-09T10:15:36.145Z,98434.11
2018-05-09T10:18:06.490Z,98432.96
2018-05-09T10:20:34.274Z,98426.62
2018-05-09T10:23:01.879Z,98427.83
2018-05-09T10:25:29.405Z,98420.71
2018-05-09T10:27:57.353Z,98418.39
2018-05-09T10:30:24.928Z,98422.09
2018-05-09T10:32:52.484Z,98410.75
2018-05-09T10:35:20.037Z,98409.81
2018-05-09T10:37:47.591Z,98403.20
2018-05-09T10:40:15.113Z,98405.48
2018-05-09T10:42:42.694Z,98404.64
2018-05-09T10:45:10.274Z,98407.94
2018-05-09T10:47:37.893Z,98397.73
2018-05-09T10:50:05.468Z,98396.92
2018-05-09T10:52:33.029Z,98393.10
2018-05-09T10:55:00.613Z,98390.84
2018-05-09T10:57:28.182Z,98393.39
2018-05-09T10:59:55.731Z,98390.68
2018-05-09T11:02:23.408Z,98384.77
2018-05-09T11:04:50.937Z,98383.28
2018-05-09T11:07:18.515Z,98388.36
2018-05-09T11:09:46.062Z,98387.30
2018-05-09T11:12:13.633Z,98394.50
2018-05-09T11:14:41.190Z,98386.78
2018-05-09T11:17:08.725Z,98381.03
2018-05-09T11:19:36.325Z,98381.95
2018-05-09T11:22:04.427Z,98388.97
2018-05-09T11:24:32.073Z,98388.11
2018-05-09T11:26:59.602Z,98380.00
2018-05-09T11:29:27.266Z,98385.06
2018-05-09T11:31:54.838Z,98374.77
2018-05-09T11:34:22.413Z,98372.84
2018-05-09T11:36:50.047Z,98378.61
2018-05-09T11:39:17.715Z,98371.63
2018-05-09T11:41:45.321Z,98370.15
2018-05-09T11:44:12.921Z,98376.92
2018-05-09T11:46:40.498Z,98371.95
2018-05-09T11:49:11.000Z,98376.15
2018-05-09T11:51:42.385Z,98370.01
2018-05-09T11:54:12.176Z,98361.04
2018-05-09T11:56:39.738Z,98364.35
2018-05-09T11:59:07.333Z,98354.00
2018-05-09T12:01:36.516Z,98362.16
2018-05-09T12:04:05.317Z,98342.45
2018-05-09T12:06:33.679Z,98362.52
2018-05-09T12:09:01.271Z,98355.63
2018-05-09T12:11:31.729Z,98350.80
2018-05-09T12:13:59.678Z,98342.11
2018-05-09T12:16:27.802Z,98338.45
2018-05-09T12:18:56.926Z,98342.58
2018-05-09T12:21:29.077Z,98337.44
2018-05-09T12:23:57.099Z,98334.69
2018-05-09T12:26:26.349Z,98333.20
2018-05-09T12:28:55.066Z,98331.23
2018-05-09T12:31:22.993Z,98325.22
2018-05-09T12:33:50.746Z,98324.55
2018-05-09T12:36:18.572Z,98314.80
2018-05-09T12:38:47.000Z,98310.32
2018-05-09T12:41:14.658Z,98315.31
2018-05-09T12:43:42.225Z,98311.92
2018-05-09T12:46:10.720Z,98300.75
2018-05-09T12:48:38.483Z,98301.55
2018-05-09T12:51:05.930Z,98307.20
2018-05-09T12:53:33.886Z,98300.56
2018-05-09T12:56:01.440Z,98302.14
2018-05-09T12:58:32.936Z,98297.18
2018-05-09T13:01:01.286Z,98299.85
2018-05-09T13:03:29.079Z,98289.22
2018-05-09T13:05:58.990Z,98286.13
2018-05-09T13:08:26.727Z,98277.34
2018-05-09T13:10:56.052Z,98285.96
2018-05-09T13:13:23.911Z,98290.20
2018-05-09T13:15:52.478Z,98289.22
2018-05-09T13:18:20.234Z,98287.39
2018-05-09T13:20:47.992Z,98283.46
2018-05-09T13:23:15.813Z,98274.22
2018-05-09T13:25:43.508Z,98273.16
2018-05-09T13:28:11.392Z,98273.64
2018-05-09T13:30:38.943Z,98270.86
2018-05-09T13:33:06.803Z,98262.56
2018-05-09T13:35:35.552Z,98284.76
2018-05-09T13:38:03.604Z,98270.33
2018-05-09T13:40:32.252Z,98268.83
2018-05-09T13:42:59.856Z,98267.98
2018-05-09T13:45:27.732Z,98264.17
2018-05-09T13:47:55.961Z,98255.13
2018-05-09T13:50:23.621Z,98255.84
2018-05-09T13:52:52.921Z,98251.28
2018-05-09T13:55:20.493Z,98250.53
2018-05-09T13:57:48.143Z,98248.41
2018-05-09T14:00:15.706Z,98248.34
2018-05-09T14:02:45.171Z,98248.37
2018-05-09T14:05:13.485Z,98247.17
2018-05-09T14:07:41.516Z,98234.67
2018-05-09T14:10:09.330Z,98238.31
2018-05-09T14:12:38.239Z,98238.72
2018-05-09T14:15:06.042Z,98244.42
2018-05-09T14:17:34.295Z,98236.88
2018-05-09T14:20:02.019Z,98240.27
2018-05-09T14:22:29.628Z,98242.13
2018-05-09T14:24:57.217Z,98236.55
2018-05-09T14:27:24.805Z,98237.61
2018-05-09T14:29:52.347Z,98234.48
2018-05-09T14:32:19.948Z,98237.11
2018-05-09T14:34:47.577Z,98229.39
2018-05-09T14:37:15.101Z,98235.89
2018-05-09T14:39:42.673Z,98231.77
2018-05-09T14:42:10.260Z,98228.42
2018-05-09T14:44:37.811Z,98235.39
2018-05-09T14:47:05.669Z,98232.92
2018-05-09T14:49:33.193Z,98231.55
2018-05-09T14:52:00.768Z,98223.13
2018-05-09T14:54:28.386Z,98213.44
2018-05-09T14:56:55.922Z,98218.53
2018-05-09T14:59:23.583Z,98215.80
2018-05-09T15:01:51.174Z,98218.16
2018-05-09T15:04:18.804Z,98214.25
2018-05-09T15:06:46.653Z,98213.90
2018-05-09T15:09:14.177Z,98206.97
2018-05-09T15:11:41.735Z,98213.61
2018-05-09T15:14:09.367Z,98217.41
2018-05-09T15:16:37.008Z,98217.80
2018-05-09T15:19:04.541Z,98221.82
2018-05-09T15:21:32.119Z,98208.93
2018-05-09T15:23:59.697Z,98217.00
2018-05-09T15:26:27.350Z,98212.59
2018-05-09T15:28:54.873Z,98215.52
2018-05-09T15:31:22.469Z,98216.44
2018-05-09T15:33:50.005Z,98213.77
2018-05-09T15:36:17.701Z,98211.81
2018-05-09T15:38:45.261Z,98203.21
2018-05-09T15:41:12.860Z,98206.22
2018-05-09T15:43:40.389Z,98209.84
2018-05-09T15:46:08.035Z,98203.58
2018-05-09T15:48:36.213Z,98210.14
2018-05-09T15:51:03.780Z,98210.88
2018-05-09T15:53:31.349Z,98205.19
2018-05-09T15:55:58.922Z,98203.58
2018-05-09T15:58:26.532Z,98203.55
2018-05-09T16:00:54.156Z,98205.80
2018-05-09T16:03:21.680Z,98205.02
2018-05-09T16:05:49.336Z,98199.89
2018-05-09T16:08:16.856Z,98202.19
2018-05-09T16:10:44.459Z,98202.58
2018-05-09T16:13:12.005Z,98207.25
2018-05-09T16:15:39.667Z,98205.77
2018-05-09T16:18:07.332Z,98208.28
2018-05-09T16:20:34.899Z,98209.48
2018-05-09T16:23:02.448Z,98206.32
2018-05-09T16:25:30.007Z,98202.39
2018-05-09T16:27:57.552Z,98209.81
2018-05-09T16:30:25.083Z,98205.50
2018-05-09T16:32:52.658Z,98206.94
2018-05-09T16:35:20.210Z,98211.09
2018-05-09T16:37:47.785Z,98206.71
2018-05-09T16:40:15.367Z,98206.59
2018-05-09T16:42:42.913Z,98203.80
2018-05-09T16:45:10.484Z,98207.56
2018-05-09T16:47:38.145Z,98208.72
2018-05-09T16:50:06.426Z,98214.28
2018-05-09T16:52:34.088Z,98220.80
2018-05-09T16:55:01.628Z,98212.80
2018-05-09T16:57:29.202Z,98218.34
2018-05-09T16:59:56.761Z,98217.46
2018-05-09T17:02:24.331Z,98215.89
2018-05-09T17:04:51.853Z,98219.20
2018-05-09T17:07:19.514Z,98220.98
2018-05-09T17:09:46.990Z,98227.07
2018-05-09T17:12:14.544Z,98226.08
2018-05-09T17:14:42.119Z,98225.63
2018-05-09T17:17:09.792Z,98226.15
2018-05-09T17:19:37.328Z,98221.30
2018-05-09T17:22:22.410Z,98225.04
2018-05-09T17:24:50.034Z,98220.73
2018-05-09T17:27:17.558Z,98226.92
2018-05-09T17:29:45.108Z,98219.00
2018-05-09T17:32:12.686Z,98224.86
2018-05-09T17:34:40.278Z,98219.20
2018-05-09T17:37:07.866Z,98227.33
2018-05-09T17:39:35.423Z,98227.13
2018-05-09T17:42:02.997Z,98226.00
2018-05-09T17:44:30.522Z,98226.93
2018-05-09T17:46:58.222Z,98225.67
2018-05-09T17:49:25.778Z,98228.88
2018-05-09T17:51:53.303Z,98224.77
2018-05-09T17:54:20.857Z,98227.74
2018-05-09T17:56:48.382Z,98225.67
2018-05-09T17:59:16.013Z,98227.13
2018-05-09T18:01:43.537Z,98230.63
2018-05-09T18:04:11.140Z,98225.05
2018-05-09T18:06:38.689Z,98229.78
2018-05-09T18:09:06.744Z,98212.57
2018-05-09T18:11:34.320Z,98227.60
2018-05-09T18:14:01.901Z,98223.06
2018-05-09T18:16:29.447Z,98222.96
2018-05-09T18:18:57.031Z,98224.06
2018-05-09T18:21:24.556Z,98231.66
2018-05-09T18:23:52.119Z,98226.45
2018-05-09T18:26:19.659Z,98224.24
2018-05-09T18:28:47.212Z,98225.92
2018-05-09T18:31:14.742Z,98224.73
2018-05-09T18:33:42.294Z,98218.13
2018-05-09T18:36:09.822Z,98220.95
2018-05-09T18:38:37.375Z,98223.00
2018-05-09T18:41:04.929Z,98223.81
2018-05-09T18:43:32.593Z,98228.11
2018-05-09T18:46:00.253Z,98216.14
2018-05-09T18:48:27.832Z,98218.25
2018-05-09T18:50:55.382Z,98225.97
2018-05-09T18:53:22.962Z,98227.29
2018-05-09T18:55:50.595Z,98226.55
2018-05-09T18:58:18.257Z,98230.99
2018-05-09T19:00:45.797Z,98225.34
2018-05-09T19:03:13.488Z,98222.84
2018-05-09T19:05:41.149Z,98223.69
2018-05-09T19:08:08.722Z,98226.01
2018-05-09T19:10:36.974Z,98231.19
2018-05-09T19:13:04.551Z,98227.41
2018-05-09T19:15:32.208Z,98227.86
2018-05-09T19:17:59.859Z,98233.47
2018-05-09T19:20:27.521Z,98242.59
2018-05-09T19:22:55.063Z,98240.59
2018-05-09T19:25:22.618Z,98246.91
2018-05-09T19:27:50.141Z,98244.81
2018-05-09T19:30:17.716Z,98241.19
2018-05-09T19:32:45.246Z,98252.88
2018-05-09T19:35:12.800Z,98246.21
2018-05-09T19:37:40.323Z,98254.14
2018-05-09T19:40:07.875Z,98245.92
2018-05-09T19:42:35.401Z,98255.91
2018-05-09T19:45:02.980Z,98261.29
2018-05-09T19:47:30.584Z,98266.81
2018-05-09T19:49:58.137Z,98267.70
2018-05-09T19:52:25.691Z,98270.69
2018-05-09T19:54:53.253Z,98270.22
2018-05-09T19:57:20.790Z,98278.17
2018-05-09T19:59:48.342Z,98280.70
2018-05-09T20:02:15.870Z,98286.13
2018-05-09T20:04:43.507Z,98276.52
2018-05-09T20:07:11.047Z,98285.45
2018-05-09T20:09:38.601Z,98285.23
2018-05-09T20:12:07.210Z,98292.19
2018-05-09T20:14:35.671Z,98284.25
2018-05-09T20:17:03.186Z,98290.92
2018-05-09T20:19:30.735Z,98290.20
2018-05-09T20:21:58.265Z,98283.14
2018-05-09T20:24:25.919Z,98285.47
2018-05-09T20:26:53.491Z,98284.23
2018-05-09T20:29:21.020Z,98282.25
2018-05-09T20:32:00.435Z,98283.19
2018-05-09T20:34:30.274Z,98281.09
2018-05-09T20:36:57.825Z,98273.45
2018-05-09T20:39:25.380Z,98280.73
2018-05-09T20:41:53.191Z,98279.48
2018-05-09T20:44:20.777Z,98276.80
2018-05-09T20:46:48.388Z,98283.09
2018-05-09T20:49:15.938Z,98277.19
2018-05-09T20:51:51.536Z,98283.78
2018-05-09T20:54:19.141Z,98274.70
2018-05-09T20:56:46.815Z,98282.89
2018-05-09T20:59:14.432Z,98278.63
2018-05-09T21:01:48.814Z,98280.36
2018-05-09T21:04:16.354Z,98276.50
2018-05-09T21:06:44.017Z,98291.18
2018-05-09T21:09:11.630Z,98288.99
2018-05-09T21:11:39.233Z,98284.25
2018-05-09T21:14:07.811Z,98273.63
2018-05-09T21:16:35.389Z,98280.58
2018-05-09T21:19:03.937Z,98292.30
2018-05-09T21:21:31.714Z,98295.04
2018-05-09T21:23:59.698Z,98293.77
2018-05-09T21:26:27.771Z,98292.89
2018-05-09T21:28:57.699Z,98285.72
2018-05-09T21:31:27.244Z,98291.68
2018-05-09T21:33:57.433Z,98291.31
2018-05-09T21:36:28.699Z,98284.26
2018-05-09T21:38:58.432Z,98286.47
2018-05-09T21:41:26.850Z,98286.23
2018-05-09T21:43:58.143Z,98287.14
2018-05-09T21:46:26.189Z,98294.31
2018-05-09T21:48:54.190Z,98291.56
2018-05-09T21:51:21.845Z,98291.43
2018-05-09T21:53:49.674Z,98291.64
2018-05-09T21:56:17.325Z,98279.70
2018-05-09T21:58:45.000Z,98281.36
2018-05-09T22:01:15.889Z,98279.45
2018-05-09T22:03:43.801Z,98278.00
2018-05-09T22:06:11.857Z,98276.89
2018-05-09T22:08:41.961Z,98273.70
2018-05-09T22:11:10.361Z,98274.67
2018-05-09T22:13:37.935Z,98281.44
2018-05-09T22:16:05.644Z,98272.48
2018-05-09T22:18:33.614Z,98283.47
2018-05-09T22:21:02.099Z,98283.64
2018-05-09T22:23:30.225Z,98287.06
2018-05-09T22:25:58.492Z,98289.20
2018-05-09T22:28:26.926Z,98281.53
2018-05-09T22:30:55.029Z,98285.03
2018-05-09T22:33:22.781Z,98283.12
2018-05-09T22:35:52.343Z,98286.09
2018-05-09T22:38:20.343Z,98280.58
2018-05-09T22:40:48.215Z,98283.08
2018-05-09T22:43:16.139Z,98280.53
2018-05-09T22:45:43.947Z,98284.31
2018-05-09T22:48:11.629Z,98285.92
2018-05-09T22:50:39.147Z,98277.77
2018-05-09T22:53:07.167Z,98283.03
2018-05-09T22:55:34.700Z,98278.89
2018-05-09T22:58:02.254Z,98276.91
2018-05-09T23:00:29.805Z,98278.08
2018-05-09T23:02:57.357Z,98272.27
2018-05-09T23:05:24.964Z,98277.36
2018-05-09T23:07:52.537Z,98278.22
2018-05-09T23:10:20.188Z,98278.64
2018-05-09T23:12:48.060Z,98288.25
2018-05-09T23:15:15.617Z,98286.41
2018-05-09T23:17:43.222Z,98284.18
2018-05-09T23:20:10.776Z,98284.12
2018-05-09T23:22:38.392Z,98280.11
2018-05-09T23:25:05.930Z,98275.94
2018-05-09T23:27:33.477Z,98274.89
2018-05-09T23:30:01.032Z,98267.71
2018-05-09T23:32:28.616Z,98274.34
2018-05-09T23:34:56.161Z,98265.11
2018-05-09T23:37:23.749Z,98276.38
2018-05-09T23:39:51.294Z,98273.39
2018-05-09T23:42:18.973Z,98274.18
2018-05-09T23:44:46.494Z,98273.77
2018-05-09T23:47:14.198Z,98277.06
2018-05-09T23:49:41.730Z,98287.89
2018-05-09T23:52:09.312Z,98282.30
2018-05-09T23:54:36.873Z,98276.47
2018-05-09T23:57:04.406Z,98273.19
2018-05-09T23:59:31.957Z,98279.88
